sensor_id;sensor_type;location;lat;lon;timestamp;pressure;altitude;pressure_sealevel;temperature;humidity
19108;BME280;9686;48.832;9.126;2023-08-12T00:00:53;98475.84;;;21.65;nan
19108;BME280;9686;48.832;9.126;2023-08-12T00:03:19;98486.72;;;21.40;nan
19108;BME280;9686;48.832;9.126;2023-08-12T00:05:45;98481.03;;;21.48;nan
19108;BME280;9686;48.832;9.126;2023-08-12T00:08:10;98472.50;;;21.41;nan
19108;BME280;9686;48.832;9.126;2023-08-12T00:10:36;98474.94;;;21.46;nan
19108;BME280;9686;48.832;9.126;2023-08-12T00:13:01;98477.09;;;21.17;nan
19108;BME280;9686;48.832;9.126;2023-08-12T00:15:26;98486.78;;;20.98;nan
19108;BME280;9686;48.832;9.126;2023-08-12T00:17:52;98482.00;;;21.06;nan
19108;BME280;9686;48.832;9.126;2023-08-12T00:20:17;98467.22;;;21.21;nan
19108;BME280;9686;48.832;9.126;2023-08-12T00:22:43;98471.47;;;21.25;nan
19108;BME280;9686;48.832;9.126;2023-08-12T00:25:08;98458.22;;;21.25;nan
19108;BME280;9686;48.832;9.126;2023-08-12T00:27:34;98455.03;;;21.17;nan
19108;BME280;9686;48.832;9.126;2023-08-12T00:29:59;98464.19;;;20.89;nan
19108;BME280;9686;48.832;9.126;2023-08-12T00:32:24;98466.97;;;20.66;nan
19108;BME280;9686;48.832;9.126;2023-08-12T00:34:49;98469.53;;;20.47;nan
19108;BME280;9686;48.832;9.126;2023-08-12T00:37:15;98463.03;;;20.54;nan
19108;BME280;9686;48.832;9.126;2023-08-12T00:39:40;98462.31;;;21.32;nan
19108;BME280;9686;48.832;9.126;2023-08-12T00:42:06;98444.13;;;21.43;nan
19108;BME280;9686;48.832;9.126;2023-08-12T00:44:31;98440.38;;;21.29;nan
19108;BME280;9686;48.832;9.126;2023-08-12T00:46:56;98438.34;;;21.34;nan
19108;BME280;9686;48.832;9.126;2023-08-12T00:49:25;98438.97;;;21.20;nan
19108;BME280;9686;48.832;9.126;2023-08-12T00:51:52;98448.38;;;20.88;nan
19108;BME280;9686;48.832;9.126;2023-08-12T00:54:19;98431.44;;;21.11;nan
19108;BME280;9686;48.832;9.126;2023-08-12T00:56:45;98423.28;;;21.15;nan
19108;BME280;9686;48.832;9.126;2023-08-12T00:59:11;98432.44;;;21.08;nan
19108;BME280;9686;48.832;9.126;2023-08-12T01:01:40;98429.84;;;21.07;nan
19108;BME280;9686;48.832;9.126;2023-08-12T01:04:06;98424.88;;;20.99;nan
19108;BME280;9686;48.832;9.126;2023-08-12T01:06:32;98429.09;;;20.84;nan
19108;BME280;9686;48.832;9.126;2023-08-12T01:08:58;98422.22;;;20.99;nan
19108;BME280;9686;48.832;9.126;2023-08-12T01:11:28;98430.97;;;20.81;nan
19108;BME280;9686;48.832;9.126;2023-08-12T01:14:04;98436.63;;;20.73;nan
19108;BME280;9686;48.832;9.126;2023-08-12T01:16:35;98438.06;;;20.80;nan
19108;BME280;9686;48.832;9.126;2023-08-12T01:19:06;98433.84;;;20.76;nan
19108;BME280;9686;48.832;9.126;2023-08-12T01:21:40;98428.03;;;20.68;nan
19108;BME280;9686;48.832;9.126;2023-08-12T01:24:07;98420.06;;;20.88;nan
19108;BME280;9686;48.832;9.126;2023-08-12T01:26:32;98423.50;;;20.70;nan
19108;BME280;9686;48.832;9.126;2023-08-12T01:28:57;98418.63;;;20.61;nan
19108;BME280;9686;48.832;9.126;2023-08-12T01:31:43;98407.25;;;20.59;nan
19108;BME280;9686;48.832;9.126;2023-08-12T01:36:37;98406.56;;;20.74;nan
19108;BME280;9686;48.832;9.126;2023-08-12T01:39:06;98412.59;;;20.57;nan
19108;BME280;9686;48.832;9.126;2023-08-12T01:41:34;98399.88;;;20.86;nan
19108;BME280;9686;48.832;9.126;2023-08-12T01:44:01;98398.09;;;20.86;nan
19108;BME280;9686;48.832;9.126;2023-08-12T01:46:27;98404.47;;;20.81;nan
19108;BME280;9686;48.832;9.126;2023-08-12T01:48:52;98400.94;;;20.82;nan
19108;BME280;9686;48.832;9.126;2023-08-12T01:51:18;98394.31;;;20.72;nan
19108;BME280;9686;48.832;9.126;2023-08-12T01:53:43;98402.03;;;20.76;nan
19108;BME280;9686;48.832;9.126;2023-08-12T01:56:08;98396.88;;;20.73;nan
19108;BME280;9686;48.832;9.126;2023-08-12T01:58:33;98394.44;;;20.69;nan
19108;BME280;9686;48.832;9.126;2023-08-12T02:00:59;98400.31;;;20.75;nan
19108;BME280;9686;48.832;9.126;2023-08-12T02:03:24;98399.16;;;20.82;nan
19108;BME280;9686;48.832;9.126;2023-08-12T02:05:50;98393.97;;;20.79;nan
19108;BME280;9686;48.832;9.126;2023-08-12T02:08:16;98395.16;;;20.92;nan
19108;BME280;9686;48.832;9.126;2023-08-12T02:10:41;98393.34;;;20.93;nan
19108;BME280;9686;48.832;9.126;2023-08-12T02:13:06;98392.72;;;20.68;nan
19108;BME280;9686;48.832;9.126;2023-08-12T02:15:31;98397.88;;;20.71;nan
19108;BME280;9686;48.832;9.126;2023-08-12T02:17:57;98392.22;;;20.78;nan
19108;BME280;9686;48.832;9.126;2023-08-12T02:20:24;98394.88;;;20.78;nan
19108;BME280;9686;48.832;9.126;2023-08-12T02:22:49;98392.44;;;20.74;nan
19108;BME280;9686;48.832;9.126;2023-08-12T02:25:14;98385.28;;;20.76;nan
19108;BME280;9686;48.832;9.126;2023-08-12T02:27:39;98387.69;;;20.82;nan
19108;BME280;9686;48.832;9.126;2023-08-12T02:30:05;98383.97;;;20.86;nan
19108;BME280;9686;48.832;9.126;2023-08-12T02:32:31;98383.19;;;20.84;nan
19108;BME280;9686;48.832;9.126;2023-08-12T02:34:56;98380.97;;;20.93;nan
19108;BME280;9686;48.832;9.126;2023-08-12T02:37:21;98378.25;;;20.95;nan
19108;BME280;9686;48.832;9.126;2023-08-12T02:39:47;98381.81;;;20.94;nan
19108;BME280;9686;48.832;9.126;2023-08-12T02:42:12;98374.59;;;20.98;nan
19108;BME280;9686;48.832;9.126;2023-08-12T02:44:37;98369.06;;;21.02;nan
19108;BME280;9686;48.832;9.126;2023-08-12T02:47:02;98375.31;;;21.01;nan
19108;BME280;9686;48.832;9.126;2023-08-12T02:49:28;98367.88;;;21.09;nan
19108;BME280;9686;48.832;9.126;2023-08-12T02:51:53;98379.75;;;21.01;nan
19108;BME280;9686;48.832;9.126;2023-08-12T02:54:18;98381.31;;;21.05;nan
19108;BME280;9686;48.832;9.126;2023-08-12T02:56:44;98381.00;;;21.12;nan
19108;BME280;9686;48.832;9.126;2023-08-12T02:59:09;98377.63;;;21.09;nan
19108;BME280;9686;48.832;9.126;2023-08-12T03:01:34;98377.50;;;21.12;nan
19108;BME280;9686;48.832;9.126;2023-08-12T03:03:59;98365.16;;;21.11;nan
19108;BME280;9686;48.832;9.126;2023-08-12T03:06:25;98371.09;;;21.16;nan
19108;BME280;9686;48.832;9.126;2023-08-12T03:08:50;98368.84;;;21.27;nan
19108;BME280;9686;48.832;9.126;2023-08-12T03:11:15;98366.81;;;21.32;nan
19108;BME280;9686;48.832;9.126;2023-08-12T03:13:41;98361.34;;;21.37;nan
19108;BME280;9686;48.832;9.126;2023-08-12T03:16:11;98359.25;;;21.24;nan
19108;BME280;9686;48.832;9.126;2023-08-12T03:18:38;98365.88;;;21.33;nan
19108;BME280;9686;48.832;9.126;2023-08-12T03:21:07;98367.63;;;21.34;nan
19108;BME280;9686;48.832;9.126;2023-08-12T03:23:33;98368.06;;;21.25;nan
19108;BME280;9686;48.832;9.126;2023-08-12T03:25:58;98357.38;;;21.27;nan
19108;BME280;9686;48.832;9.126;2023-08-12T03:28:24;98361.03;;;21.24;nan
19108;BME280;9686;48.832;9.126;2023-08-12T03:30:50;98361.75;;;21.28;nan
19108;BME280;9686;48.832;9.126;2023-08-12T03:33:16;98356.00;;;21.18;nan
19108;BME280;9686;48.832;9.126;2023-08-12T03:35:45;98356.84;;;21.18;nan
19108;BME280;9686;48.832;9.126;2023-08-12T03:38:10;98361.22;;;21.19;nan
19108;BME280;9686;48.832;9.126;2023-08-12T03:40:38;98359.28;;;21.23;nan
19108;BME280;9686;48.832;9.126;2023-08-12T03:43:03;98372.38;;;20.88;nan
19108;BME280;9686;48.832;9.126;2023-08-12T03:45:29;98363.22;;;21.14;nan
19108;BME280;9686;48.832;9.126;2023-08-12T03:47:54;98364.56;;;21.23;nan
19108;BME280;9686;48.832;9.126;2023-08-12T03:50:19;98361.84;;;21.06;nan
19108;BME280;9686;48.832;9.126;2023-08-12T03:52:45;98373.81;;;20.75;nan
19108;BME280;9686;48.832;9.126;2023-08-12T03:55:10;98372.19;;;20.52;nan
19108;BME280;9686;48.832;9.126;2023-08-12T03:57:35;98360.09;;;21.25;nan
19108;BME280;9686;48.832;9.126;2023-08-12T04:00:01;98357.59;;;21.41;nan
19108;BME280;9686;48.832;9.126;2023-08-12T04:02:26;98367.97;;;21.27;nan
19108;BME280;9686;48.832;9.126;2023-08-12T04:04:51;98374.22;;;21.26;nan
19108;BME280;9686;48.832;9.126;2023-08-12T04:07:16;98373.28;;;21.45;nan
19108;BME280;9686;48.832;9.126;2023-08-12T04:09:42;98359.88;;;21.48;nan
19108;BME280;9686;48.832;9.126;2023-08-12T04:12:07;98372.91;;;21.53;nan
19108;BME280;9686;48.832;9.126;2023-08-12T04:14:32;98369.78;;;21.45;nan
19108;BME280;9686;48.832;9.126;2023-08-12T04:16:58;98372.34;;;21.46;nan
19108;BME280;9686;48.832;9.126;2023-08-12T04:19:23;98365.09;;;21.50;nan
19108;BME280;9686;48.832;9.126;2023-08-12T04:21:48;98363.31;;;21.50;nan
19108;BME280;9686;48.832;9.126;2023-08-12T04:24:13;98372.75;;;21.56;nan
19108;BME280;9686;48.832;9.126;2023-08-12T04:26:39;98376.94;;;21.24;nan
19108;BME280;9686;48.832;9.126;2023-08-12T04:29:04;98383.44;;;21.17;nan
19108;BME280;9686;48.832;9.126;2023-08-12T04:31:30;98388.72;;;21.17;nan
19108;BME280;9686;48.832;9.126;2023-08-12T04:33:55;98388.03;;;21.13;nan
19108;BME280;9686;48.832;9.126;2023-08-12T04:36:20;98383.56;;;21.14;nan
19108;BME280;9686;48.832;9.126;2023-08-12T04:38:46;98392.69;;;21.08;nan
19108;BME280;9686;48.832;9.126;2023-08-12T04:41:11;98377.28;;;21.73;nan
19108;BME280;9686;48.832;9.126;2023-08-12T04:43:37;98366.28;;;21.80;nan
19108;BME280;9686;48.832;9.126;2023-08-12T04:46:02;98363.16;;;21.72;nan
19108;BME280;9686;48.832;9.126;2023-08-12T04:48:27;98361.22;;;21.57;nan
19108;BME280;9686;48.832;9.126;2023-08-12T04:50:52;98379.06;;;21.53;nan
19108;BME280;9686;48.832;9.126;2023-08-12T04:53:18;98391.84;;;21.64;nan
19108;BME280;9686;48.832;9.126;2023-08-12T04:55:43;98373.59;;;21.75;nan
19108;BME280;9686;48.832;9.126;2023-08-12T04:58:09;98378.84;;;21.20;nan
19108;BME280;9686;48.832;9.126;2023-08-12T05:00:34;98383.75;;;21.48;nan
19108;BME280;9686;48.832;9.126;2023-08-12T05:03:00;98370.00;;;21.76;nan
19108;BME280;9686;48.832;9.126;2023-08-12T05:05:26;98372.66;;;21.76;nan
19108;BME280;9686;48.832;9.126;2023-08-12T05:07:52;98373.69;;;21.74;nan
19108;BME280;9686;48.832;9.126;2023-08-12T05:10:17;98377.97;;;21.76;nan
19108;BME280;9686;48.832;9.126;2023-08-12T05:12:43;98377.13;;;21.76;nan
19108;BME280;9686;48.832;9.126;2023-08-12T05:15:09;98375.09;;;21.81;nan
19108;BME280;9686;48.832;9.126;2023-08-12T05:17:35;98357.06;;;21.51;nan
19108;BME280;9686;48.832;9.126;2023-08-12T05:20:00;98364.25;;;21.49;nan
19108;BME280;9686;48.832;9.126;2023-08-12T05:22:25;98369.47;;;21.51;nan
19108;BME280;9686;48.832;9.126;2023-08-12T05:24:51;98385.47;;;21.49;nan
19108;BME280;9686;48.832;9.126;2023-08-12T05:27:16;98379.94;;;21.54;nan
19108;BME280;9686;48.832;9.126;2023-08-12T05:29:41;98394.50;;;21.64;nan
19108;BME280;9686;48.832;9.126;2023-08-12T05:32:07;98398.44;;;21.74;nan
19108;BME280;9686;48.832;9.126;2023-08-12T05:34:32;98392.97;;;21.77;nan
19108;BME280;9686;48.832;9.126;2023-08-12T05:36:57;98396.66;;;22.11;nan
19108;BME280;9686;48.832;9.126;2023-08-12T05:39:22;98389.88;;;21.87;nan
19108;BME280;9686;48.832;9.126;2023-08-12T05:41:48;98381.22;;;22.00;nan
19108;BME280;9686;48.832;9.126;2023-08-12T05:44:13;98366.69;;;21.90;nan
19108;BME280;9686;48.832;9.126;2023-08-12T05:46:38;98365.72;;;21.74;nan
19108;BME280;9686;48.832;9.126;2023-08-12T05:49:04;98368.91;;;21.63;nan
19108;BME280;9686;48.832;9.126;2023-08-12T05:51:29;98373.03;;;21.88;nan
19108;BME280;9686;48.832;9.126;2023-08-12T05:53:54;98382.19;;;21.44;nan
19108;BME280;9686;48.832;9.126;2023-08-12T05:56:20;98376.56;;;21.50;nan
19108;BME280;9686;48.832;9.126;2023-08-12T05:58:45;98388.69;;;21.56;nan
19108;BME280;9686;48.832;9.126;2023-08-12T06:01:10;98400.38;;;21.52;nan
19108;BME280;9686;48.832;9.126;2023-08-12T06:03:35;98415.13;;;21.95;nan
19108;BME280;9686;48.832;9.126;2023-08-12T06:06:01;98415.66;;;22.02;nan
19108;BME280;9686;48.832;9.126;2023-08-12T06:08:26;98398.81;;;22.03;nan
19108;BME280;9686;48.832;9.126;2023-08-12T06:10:51;98389.41;;;22.14;nan
19108;BME280;9686;48.832;9.126;2023-08-12T06:13:16;98383.06;;;22.34;nan
19108;BME280;9686;48.832;9.126;2023-08-12T06:15:42;98374.88;;;22.22;nan
19108;BME280;9686;48.832;9.126;2023-08-12T06:18:07;98373.09;;;22.03;nan
19108;BME280;9686;48.832;9.126;2023-08-12T06:20:32;98373.88;;;21.88;nan
19108;BME280;9686;48.832;9.126;2023-08-12T06:22:58;98370.84;;;21.96;nan
19108;BME280;9686;48.832;9.126;2023-08-12T06:25:23;98378.88;;;22.13;nan
19108;BME280;9686;48.832;9.126;2023-08-12T06:27:48;98371.59;;;22.34;nan
19108;BME280;9686;48.832;9.126;2023-08-12T06:30:14;98371.69;;;22.32;nan
19108;BME280;9686;48.832;9.126;2023-08-12T06:32:40;98370.97;;;22.29;nan
19108;BME280;9686;48.832;9.126;2023-08-12T06:35:05;98376.28;;;22.29;nan
19108;BME280;9686;48.832;9.126;2023-08-12T06:37:31;98376.81;;;22.35;nan
19108;BME280;9686;48.832;9.126;2023-08-12T06:39:56;98372.00;;;22.43;nan
19108;BME280;9686;48.832;9.126;2023-08-12T06:42:22;98365.19;;;22.55;nan
19108;BME280;9686;48.832;9.126;2023-08-12T06:44:55;98367.44;;;22.63;nan
19108;BME280;9686;48.832;9.126;2023-08-12T06:47:20;98374.34;;;22.67;nan
19108;BME280;9686;48.832;9.126;2023-08-12T06:49:46;98374.09;;;22.71;nan
19108;BME280;9686;48.832;9.126;2023-08-12T06:52:11;98385.19;;;22.97;nan
19108;BME280;9686;48.832;9.126;2023-08-12T06:54:37;98375.75;;;23.07;nan
19108;BME280;9686;48.832;9.126;2023-08-12T06:57:02;98372.84;;;23.12;nan
19108;BME280;9686;48.832;9.126;2023-08-12T06:59:27;98370.78;;;23.01;nan
19108;BME280;9686;48.832;9.126;2023-08-12T07:01:53;98392.03;;;23.01;nan
19108;BME280;9686;48.832;9.126;2023-08-12T07:04:18;98378.78;;;23.17;nan
19108;BME280;9686;48.832;9.126;2023-08-12T07:06:43;98384.53;;;23.25;nan
19108;BME280;9686;48.832;9.126;2023-08-12T07:09:09;98384.97;;;23.33;nan
19108;BME280;9686;48.832;9.126;2023-08-12T07:11:34;98364.22;;;23.55;nan
19108;BME280;9686;48.832;9.126;2023-08-12T07:13:59;98364.84;;;23.60;nan
19108;BME280;9686;48.832;9.126;2023-08-12T07:16:24;98361.16;;;23.63;nan
19108;BME280;9686;48.832;9.126;2023-08-12T07:18:50;98368.28;;;23.62;nan
19108;BME280;9686;48.832;9.126;2023-08-12T07:21:15;98371.03;;;23.61;nan
19108;BME280;9686;48.832;9.126;2023-08-12T07:23:41;98379.28;;;23.56;nan
19108;BME280;9686;48.832;9.126;2023-08-12T07:26:06;98381.00;;;23.57;nan
19108;BME280;9686;48.832;9.126;2023-08-12T07:28:31;98379.97;;;23.76;nan
19108;BME280;9686;48.832;9.126;2023-08-12T07:30:57;98365.16;;;23.86;nan
19108;BME280;9686;48.832;9.126;2023-08-12T07:33:22;98362.97;;;24.08;nan
19108;BME280;9686;48.832;9.126;2023-08-12T07:35:47;98363.84;;;24.09;nan
19108;BME280;9686;48.832;9.126;2023-08-12T07:38:13;98351.78;;;24.17;nan
19108;BME280;9686;48.832;9.126;2023-08-12T07:40:38;98356.78;;;24.23;nan
19108;BME280;9686;48.832;9.126;2023-08-12T07:43:03;98361.66;;;24.31;nan
19108;BME280;9686;48.832;9.126;2023-08-12T07:45:29;98345.41;;;24.36;nan
19108;BME280;9686;48.832;9.126;2023-08-12T07:47:54;98349.50;;;24.41;nan
19108;BME280;9686;48.832;9.126;2023-08-12T07:50:19;98340.91;;;24.80;nan
19108;BME280;9686;48.832;9.126;2023-08-12T07:52:45;98343.38;;;24.83;nan
19108;BME280;9686;48.832;9.126;2023-08-12T07:55:10;98334.22;;;24.87;nan
19108;BME280;9686;48.832;9.126;2023-08-12T07:57:35;98341.44;;;24.71;nan
19108;BME280;9686;48.832;9.126;2023-08-12T08:00:01;98343.19;;;24.72;nan
19108;BME280;9686;48.832;9.126;2023-08-12T08:02:26;98335.34;;;24.99;nan
19108;BME280;9686;48.832;9.126;2023-08-12T08:04:51;98329.50;;;25.07;nan
19108;BME280;9686;48.832;9.126;2023-08-12T08:07:17;98326.72;;;25.23;nan
19108;BME280;9686;48.832;9.126;2023-08-12T08:09:43;98324.22;;;25.34;nan
19108;BME280;9686;48.832;9.126;2023-08-12T08:12:10;98316.13;;;25.35;nan
19108;BME280;9686;48.832;9.126;2023-08-12T08:14:35;98313.28;;;25.65;nan
19108;BME280;9686;48.832;9.126;2023-08-12T08:17:01;98308.81;;;25.93;nan
19108;BME280;9686;48.832;9.126;2023-08-12T08:19:26;98302.44;;;25.54;nan
19108;BME280;9686;48.832;9.126;2023-08-12T08:21:51;98307.88;;;25.52;nan
19108;BME280;9686;48.832;9.126;2023-08-12T08:24:16;98311.44;;;25.39;nan
19108;BME280;9686;48.832;9.126;2023-08-12T08:26:42;98321.47;;;25.35;nan
19108;BME280;9686;48.832;9.126;2023-08-12T08:29:07;98303.97;;;25.44;nan
19108;BME280;9686;48.832;9.126;2023-08-12T08:31:32;98303.44;;;25.80;nan
19108;BME280;9686;48.832;9.126;2023-08-12T08:33:58;98297.69;;;25.99;nan
19108;BME280;9686;48.832;9.126;2023-08-12T08:36:23;98302.13;;;26.12;nan
19108;BME280;9686;48.832;9.126;2023-08-12T08:38:49;98300.84;;;26.05;nan
19108;BME280;9686;48.832;9.126;2023-08-12T08:41:16;98310.84;;;26.02;nan
19108;BME280;9686;48.832;9.126;2023-08-12T08:43:41;98312.59;;;26.03;nan
19108;BME280;9686;48.832;9.126;2023-08-12T08:46:09;98309.63;;;26.20;nan
19108;BME280;9686;48.832;9.126;2023-08-12T08:48:35;98305.00;;;26.22;nan
19108;BME280;9686;48.832;9.126;2023-08-12T08:51:01;98320.31;;;26.20;nan
19108;BME280;9686;48.832;9.126;2023-08-12T08:53:27;98305.47;;;26.29;nan
19108;BME280;9686;48.832;9.126;2023-08-12T08:55:52;98310.44;;;26.35;nan
19108;BME280;9686;48.832;9.126;2023-08-12T08:58:18;98307.34;;;26.41;nan
19108;BME280;9686;48.832;9.126;2023-08-12T09:00:43;98295.25;;;26.61;nan
19108;BME280;9686;48.832;9.126;2023-08-12T09:03:10;98308.63;;;26.61;nan
19108;BME280;9686;48.832;9.126;2023-08-12T09:05:36;98294.06;;;26.78;nan
19108;BME280;9686;48.832;9.126;2023-08-12T09:08:02;98293.16;;;27.28;nan
19108;BME280;9686;48.832;9.126;2023-08-12T09:10:30;98293.59;;;27.22;nan
19108;BME280;9686;48.832;9.126;2023-08-12T09:12:56;98293.88;;;27.43;nan
19108;BME280;9686;48.832;9.126;2023-08-12T09:15:21;98295.50;;;27.32;nan
19108;BME280;9686;48.832;9.126;2023-08-12T09:17:47;98294.94;;;27.40;nan
19108;BME280;9686;48.832;9.126;2023-08-12T09:20:12;98298.28;;;27.68;nan
19108;BME280;9686;48.832;9.126;2023-08-12T09:22:39;98296.19;;;27.47;nan
19108;BME280;9686;48.832;9.126;2023-08-12T09:25:05;98282.00;;;27.71;nan
19108;BME280;9686;48.832;9.126;2023-08-12T09:27:31;98287.00;;;28.10;nan
19108;BME280;9686;48.832;9.126;2023-08-12T09:29:57;98284.09;;;28.37;nan
19108;BME280;9686;48.832;9.126;2023-08-12T09:32:23;98282.16;;;28.39;nan
19108;BME280;9686;48.832;9.126;2023-08-12T09:34:53;98282.28;;;28.49;nan
19108;BME280;9686;48.832;9.126;2023-08-12T09:37:20;98274.25;;;28.71;nan
19108;BME280;9686;48.832;9.126;2023-08-12T09:39:46;98273.84;;;28.42;nan
19108;BME280;9686;48.832;9.126;2023-08-12T09:42:12;98269.63;;;28.84;nan
19108;BME280;9686;48.832;9.126;2023-08-12T09:44:38;98264.00;;;29.10;nan
19108;BME280;9686;48.832;9.126;2023-08-12T09:47:04;98255.97;;;29.21;nan
19108;BME280;9686;48.832;9.126;2023-08-12T09:49:30;98252.03;;;29.48;nan
19108;BME280;9686;48.832;9.126;2023-08-12T09:51:56;98246.91;;;29.76;nan
19108;BME280;9686;48.832;9.126;2023-08-12T09:54:22;98246.22;;;29.95;nan
19108;BME280;9686;48.832;9.126;2023-08-12T09:56:54;98228.22;;;30.07;nan
19108;BME280;9686;48.832;9.126;2023-08-12T09:59:22;98232.81;;;29.84;nan
19108;BME280;9686;48.832;9.126;2023-08-12T10:01:49;98237.47;;;29.82;nan
19108;BME280;9686;48.832;9.126;2023-08-12T10:04:17;98222.66;;;29.88;nan
19108;BME280;9686;48.832;9.126;2023-08-12T10:06:44;98222.88;;;29.96;nan
19108;BME280;9686;48.832;9.126;2023-08-12T10:09:10;98227.78;;;29.59;nan
19108;BME280;9686;48.832;9.126;2023-08-12T10:11:36;98228.59;;;29.27;nan
19108;BME280;9686;48.832;9.126;2023-08-12T10:14:03;98232.66;;;29.65;nan
19108;BME280;9686;48.832;9.126;2023-08-12T10:16:29;98226.25;;;29.77;nan
19108;BME280;9686;48.832;9.126;2023-08-12T10:18:56;98224.00;;;29.61;nan
19108;BME280;9686;48.832;9.126;2023-08-12T10:21:22;98233.41;;;29.67;nan
19108;BME280;9686;48.832;9.126;2023-08-12T10:23:50;98232.44;;;29.57;nan
19108;BME280;9686;48.832;9.126;2023-08-12T10:26:16;98233.94;;;29.50;nan
19108;BME280;9686;48.832;9.126;2023-08-12T10:28:42;98226.84;;;29.37;nan
19108;BME280;9686;48.832;9.126;2023-08-12T10:31:07;98234.28;;;29.56;nan
19108;BME280;9686;48.832;9.126;2023-08-12T10:33:40;98235.25;;;29.55;nan
19108;BME280;9686;48.832;9.126;2023-08-12T10:36:06;98236.84;;;29.58;nan
19108;BME280;9686;48.832;9.126;2023-08-12T10:38:32;98231.66;;;29.66;nan
19108;BME280;9686;48.832;9.126;2023-08-12T10:41:21;98240.84;;;29.63;nan
19108;BME280;9686;48.832;9.126;2023-08-12T10:44:00;98226.72;;;29.82;nan
19108;BME280;9686;48.832;9.126;2023-08-12T10:46:32;98232.44;;;29.89;nan
19108;BME280;9686;48.832;9.126;2023-08-12T10:48:59;98234.66;;;29.84;nan
19108;BME280;9686;48.832;9.126;2023-08-12T11:02:20;98208.41;;;30.29;nan
19108;BME280;9686;48.832;9.126;2023-08-12T11:05:13;98216.53;;;30.69;nan
19108;BME280;9686;48.832;9.126;2023-08-12T11:07:41;98223.00;;;30.57;nan
19108;BME280;9686;48.832;9.126;2023-08-12T11:10:13;98226.28;;;30.39;nan
19108;BME280;9686;48.832;9.126;2023-08-12T11:15:37;98221.41;;;30.54;nan
19108;BME280;9686;48.832;9.126;2023-08-12T11:18:05;98209.31;;;30.69;nan
19108;BME280;9686;48.832;9.126;2023-08-12T11:20:31;98203.44;;;30.55;nan
19108;BME280;9686;48.832;9.126;2023-08-12T11:22:57;98200.22;;;30.40;nan
19108;BME280;9686;48.832;9.126;2023-08-12T11:25:24;98181.91;;;30.24;nan
19108;BME280;9686;48.832;9.126;2023-08-12T11:27:49;98175.94;;;30.21;nan
19108;BME280;9686;48.832;9.126;2023-08-12T11:30:17;98170.81;;;30.18;nan
19108;BME280;9686;48.832;9.126;2023-08-12T11:32:47;98165.22;;;30.30;nan
19108;BME280;9686;48.832;9.126;2023-08-12T11:35:14;98163.47;;;30.71;nan
19108;BME280;9686;48.832;9.126;2023-08-12T11:37:42;98156.88;;;31.04;nan
19108;BME280;9686;48.832;9.126;2023-08-12T11:40:10;98159.78;;;31.51;nan
19108;BME280;9686;48.832;9.126;2023-08-12T11:42:36;98150.50;;;32.11;nan
19108;BME280;9686;48.832;9.126;2023-08-12T11:45:03;98152.34;;;32.95;nan
19108;BME280;9686;48.832;9.126;2023-08-12T11:47:29;98147.59;;;33.06;nan
19108;BME280;9686;48.832;9.126;2023-08-12T11:49:54;98180.09;;;32.77;nan
19108;BME280;9686;48.832;9.126;2023-08-12T11:52:20;98232.78;;;32.64;nan
19108;BME280;9686;48.832;9.126;2023-08-12T11:54:45;98243.25;;;31.81;nan
19108;BME280;9686;48.832;9.126;2023-08-12T11:57:11;98261.16;;;31.23;nan
19108;BME280;9686;48.832;9.126;2023-08-12T11:59:37;98254.78;;;29.89;nan
19108;BME280;9686;48.832;9.126;2023-08-12T12:02:02;98282.31;;;27.90;nan
19108;BME280;9686;48.832;9.126;2023-08-12T12:04:30;98326.63;;;25.79;nan
19108;BME280;9686;48.832;9.126;2023-08-12T12:06:56;98338.75;;;25.01;nan
19108;BME280;9686;48.832;9.126;2023-08-12T12:09:21;98337.69;;;24.75;nan
19108;BME280;9686;48.832;9.126;2023-08-12T12:11:46;98375.63;;;24.50;nan
19108;BME280;9686;48.832;9.126;2023-08-12T12:14:16;98372.09;;;24.04;nan
19108;BME280;9686;48.832;9.126;2023-08-12T12:16:46;98393.59;;;23.85;nan
19108;BME280;9686;48.832;9.126;2023-08-12T12:19:22;98402.38;;;23.87;nan
19108;BME280;9686;48.832;9.126;2023-08-12T12:21:52;98431.69;;;23.72;nan
19108;BME280;9686;48.832;9.126;2023-08-12T12:24:19;98470.53;;;23.25;nan
19108;BME280;9686;48.832;9.126;2023-08-12T12:32:18;98467.56;;;22.45;nan
19108;BME280;9686;48.832;9.126;2023-08-12T12:34:43;98457.88;;;22.44;nan
19108;BME280;9686;48.832;9.126;2023-08-12T12:37:08;98457.97;;;22.42;nan
19108;BME280;9686;48.832;9.126;2023-08-12T12:39:34;98457.59;;;22.67;nan
19108;BME280;9686;48.832;9.126;2023-08-12T12:41:59;98456.56;;;22.87;nan
19108;BME280;9686;48.832;9.126;2023-08-12T12:44:25;98458.16;;;22.91;nan
19108;BME280;9686;48.832;9.126;2023-08-12T12:46:50;98456.22;;;23.11;nan
19108;BME280;9686;48.832;9.126;2023-08-12T12:49:15;98466.00;;;23.27;nan
19108;BME280;9686;48.832;9.126;2023-08-12T12:51:41;98470.81;;;23.36;nan
19108;BME280;9686;48.832;9.126;2023-08-12T12:54:06;98483.84;;;23.58;nan
19108;BME280;9686;48.832;9.126;2023-08-12T12:56:31;98485.66;;;23.41;nan
19108;BME280;9686;48.832;9.126;2023-08-12T12:58:56;98503.19;;;23.62;nan
19108;BME280;9686;48.832;9.126;2023-08-12T13:01:22;98498.88;;;23.59;nan
19108;BME280;9686;48.832;9.126;2023-08-12T13:03:47;98511.00;;;23.65;nan
19108;BME280;9686;48.832;9.126;2023-08-12T13:06:12;98519.09;;;23.79;nan
19108;BME280;9686;48.832;9.126;2023-08-12T13:08:37;98519.97;;;23.80;nan
19108;BME280;9686;48.832;9.126;2023-08-12T13:11:03;98514.72;;;23.94;nan
19108;BME280;9686;48.832;9.126;2023-08-12T13:13:28;98522.97;;;23.89;nan
19108;BME280;9686;48.832;9.126;2023-08-12T13:15:53;98522.63;;;23.80;nan
19108;BME280;9686;48.832;9.126;2023-08-12T13:18:18;98525.53;;;23.75;nan
19108;BME280;9686;48.832;9.126;2023-08-12T13:20:44;98521.34;;;23.87;nan
19108;BME280;9686;48.832;9.126;2023-08-12T13:23:09;98529.78;;;23.95;nan
19108;BME280;9686;48.832;9.126;2023-08-12T13:25:35;98529.34;;;24.03;nan
19108;BME280;9686;48.832;9.126;2023-08-12T13:28:01;98525.75;;;24.04;nan
19108;BME280;9686;48.832;9.126;2023-08-12T13:30:27;98532.44;;;23.95;nan
19108;BME280;9686;48.832;9.126;2023-08-12T13:32:52;98532.88;;;24.03;nan
19108;BME280;9686;48.832;9.126;2023-08-12T13:35:17;98524.81;;;24.20;nan
19108;BME280;9686;48.832;9.126;2023-08-12T13:37:43;98514.91;;;24.07;nan
19108;BME280;9686;48.832;9.126;2023-08-12T13:40:08;98519.13;;;24.11;nan
19108;BME280;9686;48.832;9.126;2023-08-12T13:42:35;98514.16;;;24.36;nan
19108;BME280;9686;48.832;9.126;2023-08-12T13:45:00;98511.34;;;24.69;nan
19108;BME280;9686;48.832;9.126;2023-08-12T13:47:25;98511.41;;;24.99;nan